createdAt,value
2023-04-28T00:00:46.829Z,98216.39
2023-04-28T00:03:18.959Z,98211.45
2023-04-28T00:05:45.784Z,98211.00
2023-04-28T00:08:12.549Z,98210.66
2023-04-28T00:10:39.119Z,98210.56
2023-04-28T00:13:05.802Z,98211.81
2023-04-28T00:15:32.885Z,98209.45
2023-04-28T00:17:59.507Z,98209.45
2023-04-28T00:20:26.059Z,98209.29
2023-04-28T00:22:52.835Z,98208.57
2023-04-28T00:25:19.396Z,98210.92
2023-04-28T00:27:45.743Z,98210.45
2023-04-28T00:30:12.205Z,98208.71
2023-04-28T00:32:38.812Z,98209.37
2023-04-28T00:35:05.466Z,98208.29
2023-04-28T00:37:35.145Z,98207.05
2023-04-28T00:40:02.041Z,98205.17
2023-04-28T00:42:28.648Z,98204.84
2023-04-28T00:44:55.168Z,98208.38
2023-04-28T00:47:21.886Z,98208.09
2023-04-28T00:49:48.413Z,98209.89
2023-04-28T00:52:15.343Z,98204.14
2023-04-28T00:54:42.086Z,98204.84
2023-04-28T00:57:09.530Z,98211.73
2023-04-28T00:59:36.287Z,98208.04
2023-04-28T01:02:03.058Z,98204.17
2023-04-28T01:04:30.499Z,98204.64
2023-04-28T01:06:57.944Z,98207.69
2023-04-28T01:09:28.019Z,98206.63
2023-04-28T01:11:55.748Z,98211.71
2023-04-28T01:14:40.659Z,98215.47
2023-04-28T01:17:07.897Z,98213.16
2023-04-28T01:19:34.506Z,98211.30
2023-04-28T01:22:01.189Z,98210.05
2023-04-28T01:24:28.037Z,98215.84
2023-04-28T01:26:56.399Z,98211.39
2023-04-28T01:29:23.172Z,98206.35
2023-04-28T01:31:49.566Z,98207.95
2023-04-28T01:34:17.140Z,98206.57
2023-04-28T01:36:43.842Z,98206.59
2023-04-28T01:39:10.327Z,98206.20
2023-04-28T01:41:36.713Z,98207.54
2023-04-28T01:44:04.215Z,98205.91
2023-04-28T01:46:30.791Z,98203.81
2023-04-28T01:48:57.818Z,98206.44
2023-04-28T01:51:24.388Z,98201.55
2023-04-28T01:53:51.019Z,98199.84
2023-04-28T01:56:18.008Z,98201.05
2023-04-28T01:58:44.595Z,98204.19
2023-04-28T02:01:11.658Z,98204.98
2023-04-28T02:03:38.787Z,98206.02
2023-04-28T02:06:05.313Z,98202.08
2023-04-28T02:08:32.038Z,98200.03
2023-04-28T02:10:58.441Z,98211.90
2023-04-28T02:13:25.437Z,98208.40
2023-04-28T02:15:53.149Z,98210.19
2023-04-28T02:18:20.814Z,98208.04
2023-04-28T02:20:47.201Z,98207.89
2023-04-28T02:23:13.697Z,98211.16
2023-04-28T02:25:40.069Z,98208.09
2023-04-28T02:28:06.488Z,98208.73
2023-04-28T02:30:34.695Z,98201.23
2023-04-28T02:33:01.124Z,98198.86
2023-04-28T02:35:27.840Z,98198.66
2023-04-28T02:37:54.664Z,98196.98
2023-04-28T02:40:21.106Z,98193.30
2023-04-28T02:42:48.061Z,98194.74
2023-04-28T02:45:14.598Z,98191.77
2023-04-28T02:47:41.298Z,98191.85
2023-04-28T02:50:08.122Z,98191.36
2023-04-28T02:52:34.531Z,98190.89
2023-04-28T02:55:01.314Z,98188.45
2023-04-28T02:57:27.840Z,98186.17
2023-04-28T02:59:54.273Z,98193.04
2023-04-28T03:02:21.314Z,98190.30
2023-04-28T03:04:47.893Z,98191.83
2023-04-28T03:07:14.367Z,98185.39
2023-04-28T03:09:42.370Z,98187.35
2023-04-28T03:12:09.184Z,98183.85
2023-04-28T03:14:35.691Z,98180.37
2023-04-28T03:17:02.075Z,98181.20
2023-04-28T03:19:28.990Z,98183.75
2023-04-28T03:21:55.724Z,98182.88
2023-04-28T03:24:22.166Z,98185.66
2023-04-28T03:26:50.120Z,98192.34
2023-04-28T03:29:16.575Z,98190.98
2023-04-28T03:31:43.558Z,98190.70
2023-04-28T03:34:10.159Z,98188.36
2023-04-28T03:36:36.722Z,98185.50
2023-04-28T03:39:08.458Z,98188.62
2023-04-28T03:41:34.841Z,98187.61
2023-04-28T03:44:19.947Z,98185.90
2023-04-28T03:46:48.854Z,98183.48
2023-04-28T03:49:18.265Z,98179.57
2023-04-28T03:51:44.729Z,98181.00
2023-04-28T03:54:11.484Z,98182.04
2023-04-28T03:56:38.087Z,98182.02
2023-04-28T03:59:04.501Z,98182.95
2023-04-28T04:01:30.997Z,98184.79
2023-04-28T04:03:57.811Z,98182.31
2023-04-28T04:06:24.978Z,98180.92
2023-04-28T04:08:51.488Z,98179.24
2023-04-28T04:11:17.900Z,98178.80
2023-04-28T04:13:44.345Z,98179.96
2023-04-28T04:16:15.208Z,98177.48
2023-04-28T04:18:42.168Z,98178.33
2023-04-28T04:21:19.704Z,98180.04
2023-04-28T04:23:46.532Z,98182.25
2023-04-28T04:26:13.209Z,98182.95
2023-04-28T04:28:40.020Z,98183.98
2023-04-28T04:31:10.024Z,98184.90
2023-04-28T04:33:36.568Z,98183.03
2023-04-28T04:36:03.971Z,98184.89
2023-04-28T04:38:33.534Z,98179.73
2023-04-28T04:41:08.556Z,98180.28
2023-04-28T04:43:34.966Z,98182.84
2023-04-28T04:46:02.219Z,98179.86
2023-04-28T04:48:29.019Z,98180.95
2023-04-28T04:50:58.014Z,98185.13
2023-04-28T04:53:25.049Z,98184.57
2023-04-28T04:55:53.748Z,98187.41
2023-04-28T04:58:20.712Z,98186.75
2023-04-28T05:01:14.348Z,98187.96
2023-04-28T05:03:41.126Z,98190.89
2023-04-28T05:06:07.675Z,98188.35
2023-04-28T05:08:44.109Z,98190.67
2023-04-28T05:11:10.981Z,98193.38
2023-04-28T05:13:37.975Z,98194.60
2023-04-28T05:16:07.552Z,98190.98
2023-04-28T05:18:52.831Z,98198.58
2023-04-28T05:21:20.558Z,98196.41
2023-04-28T05:23:48.072Z,98196.91
2023-04-28T05:26:14.633Z,98200.02
2023-04-28T05:28:41.598Z,98199.93
2023-04-28T05:31:08.311Z,98199.40
2023-04-28T05:33:34.747Z,98202.66
2023-04-28T05:36:01.587Z,98197.61
2023-04-28T05:38:29.219Z,98200.07
2023-04-28T05:40:55.730Z,98198.08
2023-04-28T05:43:22.719Z,98199.00
2023-04-28T05:45:49.612Z,98196.69
2023-04-28T05:48:16.133Z,98191.89
2023-04-28T05:50:43.589Z,98192.70
2023-04-28T05:53:10.503Z,98192.02
2023-04-28T05:55:37.230Z,98196.08
2023-04-28T05:58:05.400Z,98190.39
2023-04-28T06:00:32.405Z,98188.48
2023-04-28T06:02:59.200Z,98192.03
2023-04-28T06:05:26.587Z,98192.95
2023-04-28T06:07:55.181Z,98191.27
2023-04-28T06:10:22.854Z,98190.28
2023-04-28T06:12:49.556Z,98191.75
2023-04-28T06:15:16.117Z,98189.68
2023-04-28T06:17:42.678Z,98189.97
2023-04-28T06:20:09.587Z,98190.48
2023-04-28T06:22:37.472Z,98190.73
2023-04-28T06:25:04.139Z,98189.00
2023-04-28T06:27:35.354Z,98186.79
2023-04-28T06:30:01.927Z,98185.41
2023-04-28T06:32:28.403Z,98185.75
2023-04-28T06:34:56.087Z,98184.31
2023-04-28T06:37:23.942Z,98185.23
2023-04-28T06:39:50.324Z,98184.02
2023-04-28T06:42:16.970Z,98180.56
2023-04-28T06:44:43.963Z,98179.46
2023-04-28T06:47:11.453Z,98178.26
2023-04-28T06:49:38.751Z,98175.54
2023-04-28T06:52:05.467Z,98172.24
2023-04-28T06:54:32.137Z,98175.30
2023-04-28T06:57:00.236Z,98175.53
2023-04-28T06:59:26.814Z,98176.58
2023-04-28T07:01:53.304Z,98173.45
2023-04-28T07:04:20.656Z,98175.09
2023-04-28T07:06:47.684Z,98172.63
2023-04-28T07:09:14.393Z,98171.33
2023-04-28T07:11:41.185Z,98167.38
2023-04-28T07:14:07.993Z,98168.91
2023-04-28T07:16:35.253Z,98162.98
2023-04-28T07:19:02.432Z,98165.60
2023-04-28T07:21:29.462Z,98163.83
2023-04-28T07:23:56.478Z,98160.39
2023-04-28T07:26:23.354Z,98160.11
2023-04-28T07:28:49.888Z,98156.52
2023-04-28T07:31:19.950Z,98154.06
2023-04-28T07:33:50.216Z,98150.92
2023-04-28T07:36:17.143Z,98150.18
2023-04-28T07:38:43.893Z,98144.34
2023-04-28T07:41:11.440Z,98143.80
2023-04-28T07:43:38.527Z,98141.84
2023-04-28T07:46:06.739Z,98142.58
2023-04-28T07:48:35.116Z,98139.95
2023-04-28T07:51:02.733Z,98137.55
2023-04-28T07:53:30.711Z,98143.58
2023-04-28T07:55:58.881Z,98142.59
2023-04-28T07:58:25.810Z,98139.49
2023-04-28T08:00:52.742Z,98142.69
2023-04-28T08:03:22.917Z,98145.09
2023-04-28T08:05:49.693Z,98140.34
2023-04-28T08:08:16.464Z,98136.27
2023-04-28T08:10:43.641Z,98138.55
2023-04-28T08:13:10.616Z,98135.69
2023-04-28T08:15:37.347Z,98136.35
2023-04-28T08:18:04.249Z,98139.63
2023-04-28T08:20:30.750Z,98133.36
2023-04-28T08:22:57.821Z,98135.98
2023-04-28T08:25:24.453Z,98131.55
2023-04-28T08:27:51.071Z,98127.75
2023-04-28T08:30:18.023Z,98126.33
2023-04-28T08:32:45.048Z,98124.80
2023-04-28T08:35:11.977Z,98125.73
2023-04-28T08:37:39.368Z,98120.33
2023-04-28T08:40:11.277Z,98116.23
2023-04-28T08:42:38.486Z,98109.64
2023-04-28T08:45:05.304Z,98109.69
2023-04-28T08:47:36.884Z,98110.67
2023-04-28T08:50:04.348Z,98113.15
2023-04-28T08:52:31.055Z,98110.70
2023-04-28T08:54:58.933Z,98112.43
2023-04-28T08:57:30.179Z,98111.23
2023-04-28T08:59:57.997Z,98109.77
2023-04-28T09:02:24.861Z,98110.84
2023-04-28T09:04:52.261Z,98106.36
2023-04-28T09:07:19.294Z,98109.06
2023-04-28T09:09:46.048Z,98105.88
2023-04-28T09:12:12.503Z,98103.66
2023-04-28T09:14:39.284Z,98097.34
2023-04-28T09:17:13.130Z,98094.93
2023-04-28T09:19:40.654Z,98086.94
2023-04-28T09:22:17.509Z,98086.62
2023-04-28T09:24:52.905Z,98088.37
2023-04-28T09:27:26.445Z,98091.42
2023-04-28T09:29:53.580Z,98086.77
2023-04-28T09:32:21.727Z,98086.06
2023-04-28T09:34:49.710Z,98080.38
2023-04-28T09:37:20.744Z,98073.08
2023-04-28T09:39:48.070Z,98071.02
2023-04-28T09:42:30.795Z,98062.48
2023-04-28T09:44:57.442Z,98061.21
2023-04-28T09:47:24.190Z,98061.99
2023-04-28T09:49:55.020Z,98059.40
2023-04-28T09:52:22.580Z,98055.48
2023-04-28T09:54:50.552Z,98051.95
2023-04-28T09:57:17.440Z,98045.27
2023-04-28T09:59:48.958Z,98043.98
2023-04-28T10:02:41.162Z,98041.12
2023-04-28T10:05:04.910Z,98031.67
2023-04-28T10:07:31.891Z,98024.98
2023-04-28T10:09:58.404Z,98026.45
2023-04-28T10:12:27.497Z,98024.24
2023-04-28T10:14:54.140Z,98022.05
2023-04-28T10:17:23.890Z,98013.48
2023-04-28T10:19:53.576Z,98010.36
2023-04-28T10:22:23.065Z,98005.55
2023-04-28T10:25:08.596Z,98001.85
2023-04-28T10:27:35.524Z,98000.45
2023-04-28T10:30:27.446Z,97999.55
2023-04-28T10:33:14.172Z,97996.73
2023-04-28T10:35:47.145Z,97999.20
2023-04-28T10:38:17.325Z,97994.69
2023-04-28T10:40:44.605Z,97989.91
2023-04-28T10:43:12.163Z,97986.06
2023-04-28T10:45:55.978Z,97986.30
2023-04-28T10:48:30.716Z,97987.81
2023-04-28T10:50:57.569Z,97985.26
2023-04-28T10:53:44.093Z,97977.89
2023-04-28T10:56:15.873Z,97975.77
2023-04-28T10:58:44.909Z,97971.49
2023-04-28T11:01:21.595Z,97968.96
2023-04-28T11:03:49.672Z,97967.31
2023-04-28T11:06:25.976Z,97970.57
2023-04-28T11:08:53.117Z,97968.40
2023-04-28T11:11:20.487Z,97969.36
2023-04-28T11:13:47.297Z,97966.36
2023-04-28T11:16:17.806Z,97958.17
2023-04-28T11:18:48.735Z,97961.36
2023-04-28T11:21:15.406Z,97957.58
2023-04-28T11:23:42.649Z,97948.91
2023-04-28T11:26:09.437Z,97950.33
2023-04-28T11:28:36.205Z,97945.23
2023-04-28T11:31:10.717Z,97939.63
2023-04-28T11:33:38.202Z,97931.54
2023-04-28T11:36:05.319Z,97937.31
2023-04-28T11:38:58.800Z,97939.23
2023-04-28T11:41:28.430Z,97942.05
2023-04-28T11:43:55.045Z,97941.31
2023-04-28T11:46:24.923Z,97932.08
2023-04-28T11:49:05.142Z,97918.02
2023-04-28T11:51:33.292Z,97921.69
2023-04-28T11:54:00.520Z,97922.20
2023-04-28T11:56:27.470Z,97918.17
2023-04-28T11:59:09.854Z,97910.04
2023-04-28T12:01:45.540Z,97906.96
2023-04-28T12:04:13.507Z,97904.80
2023-04-28T12:06:40.722Z,97907.11
2023-04-28T12:09:20.230Z,97898.63
2023-04-28T12:11:57.421Z,97896.48
2023-04-28T12:14:27.484Z,97896.05
2023-04-28T12:16:54.359Z,97895.97
2023-04-28T12:19:21.036Z,97893.29
2023-04-28T12:22:02.900Z,97890.18
2023-04-28T12:24:29.634Z,97890.09
2023-04-28T12:27:17.027Z,97887.39
2023-04-28T12:29:44.375Z,97879.54
2023-04-28T12:32:12.203Z,97879.05
2023-04-28T12:34:40.871Z,97875.21
2023-04-28T12:37:07.753Z,97872.45
2023-04-28T12:39:40.373Z,97872.86
2023-04-28T12:42:09.005Z,97878.09
2023-04-28T12:44:36.432Z,97870.96
2023-04-28T12:47:08.510Z,97871.21
2023-04-28T12:49:55.576Z,97858.84
2023-04-28T12:52:22.365Z,97858.73
2023-04-28T12:54:52.382Z,97860.05
2023-04-28T12:57:21.854Z,97856.04
2023-04-28T12:59:51.921Z,97852.67
2023-04-28T13:02:21.797Z,97841.82
2023-04-28T13:04:54.105Z,97836.84
2023-04-28T13:07:23.926Z,97836.93
2023-04-28T13:10:01.356Z,97833.15
2023-04-28T13:12:52.521Z,97835.94
2023-04-28T13:15:23.518Z,97834.42
2023-04-28T13:18:15.313Z,97828.75
2023-04-28T13:20:46.736Z,97825.27
2023-04-28T13:23:13.051Z,97827.26
2023-04-28T13:25:42.610Z,97831.42
2023-04-28T13:28:09.364Z,97827.33
2023-04-28T13:30:35.779Z,97820.42
2023-04-28T13:33:02.202Z,97821.44
2023-04-28T13:35:34.207Z,97817.45
2023-04-28T13:38:00.677Z,97818.36
2023-04-28T13:40:27.616Z,97817.05
2023-04-28T13:42:54.632Z,97816.77
2023-04-28T13:45:22.516Z,97814.64
2023-04-28T13:47:49.331Z,97808.66
2023-04-28T13:50:17.144Z,97797.97
2023-04-28T13:52:43.574Z,97790.95
2023-04-28T13:55:09.982Z,97786.31
2023-04-28T13:57:36.721Z,97787.17
2023-04-28T14:00:03.500Z,97780.17
2023-04-28T14:02:33.855Z,97784.95
2023-04-28T14:05:00.448Z,97780.09
2023-04-28T14:07:30.345Z,97778.41
2023-04-28T14:10:00.471Z,97779.20
2023-04-28T14:12:30.524Z,97771.23
2023-04-28T14:14:57.275Z,97768.41
2023-04-28T14:17:24.437Z,97763.92
2023-04-28T14:19:52.846Z,97765.55
2023-04-28T14:22:19.605Z,97753.51
2023-04-28T14:24:46.719Z,97754.44
2023-04-28T14:27:16.086Z,97757.58
2023-04-28T14:29:44.922Z,97756.98
2023-04-28T14:32:11.705Z,97756.13
2023-04-28T14:34:38.333Z,97751.45
2023-04-28T14:37:05.270Z,97754.88
2023-04-28T14:39:31.892Z,97749.59
2023-04-28T14:41:58.286Z,97750.16
2023-04-28T14:44:24.659Z,97745.65
2023-04-28T14:46:51.100Z,97746.20
2023-04-28T14:49:17.585Z,97744.79
2023-04-28T14:51:44.103Z,97745.14
2023-04-28T14:54:10.684Z,97748.63
2023-04-28T14:56:37.295Z,97743.91
2023-04-28T14:59:03.636Z,97740.92
2023-04-28T15:01:30.219Z,97742.16
2023-04-28T15:03:57.175Z,97744.36
2023-04-28T15:06:23.811Z,97746.20
2023-04-28T15:08:50.219Z,97744.84
2023-04-28T15:11:16.629Z,97739.58
2023-04-28T15:13:43.192Z,97738.23
2023-04-28T15:16:09.635Z,97738.73
2023-04-28T15:18:36.024Z,97742.29
2023-04-28T15:21:02.616Z,97740.80
2023-04-28T15:23:35.171Z,97742.88
2023-04-28T15:26:01.976Z,97742.33
2023-04-28T15:28:28.349Z,97737.63
2023-04-28T15:30:54.610Z,97733.42
2023-04-28T15:33:20.982Z,97731.52
2023-04-28T15:35:47.481Z,97731.58
2023-04-28T15:38:14.099Z,97728.09
2023-04-28T15:40:40.652Z,97730.55
2023-04-28T15:43:07.216Z,97728.27
2023-04-28T15:45:33.797Z,97725.92
2023-04-28T15:48:00.392Z,97726.35
2023-04-28T15:50:26.813Z,97722.27
2023-04-28T15:52:53.302Z,97713.74
2023-04-28T15:55:20.521Z,97707.42
2023-04-28T15:57:47.350Z,97705.55
2023-04-28T16:00:14.431Z,97702.55
2023-04-28T16:02:41.433Z,97703.95
2023-04-28T16:05:08.447Z,97704.16
2023-04-28T16:07:35.000Z,97710.64
2023-04-28T16:10:08.181Z,97709.69
2023-04-28T16:12:35.492Z,97705.29
2023-04-28T16:15:01.816Z,97699.39
2023-04-28T16:17:28.209Z,97701.78
2023-04-28T16:19:54.810Z,97695.41
2023-04-28T16:22:22.134Z,97689.41
2023-04-28T16:24:49.165Z,97683.34
2023-04-28T16:27:15.637Z,97681.20
2023-04-28T16:29:42.116Z,97685.38
2023-04-28T16:32:08.791Z,97682.14
2023-04-28T16:34:35.368Z,97673.41
2023-04-28T16:37:01.956Z,97667.59
2023-04-28T16:39:28.426Z,97668.06
2023-04-28T16:41:54.784Z,97669.41
2023-04-28T16:44:21.255Z,97670.52
2023-04-28T16:46:47.583Z,97671.63
2023-04-28T16:49:13.895Z,97674.81
2023-04-28T16:51:53.903Z,97672.46
2023-04-28T16:54:20.300Z,97669.95
2023-04-28T16:56:46.646Z,97666.84
2023-04-28T16:59:13.020Z,97663.61
2023-04-28T17:01:39.524Z,97663.23
2023-04-28T17:04:06.083Z,97661.90
2023-04-28T17:06:32.516Z,97662.43
2023-04-28T17:08:58.981Z,97659.02
2023-04-28T17:11:25.538Z,97655.21
2023-04-28T17:13:54.224Z,97656.71
2023-04-28T17:16:20.623Z,97653.01
2023-04-28T17:18:47.137Z,97655.73
2023-04-28T17:21:14.018Z,97655.77
2023-04-28T17:23:40.481Z,97653.05
2023-04-28T17:26:07.200Z,97649.42
2023-04-28T17:28:33.649Z,97651.30
2023-04-28T17:31:00.116Z,97651.63
2023-04-28T17:33:26.615Z,97651.25
2023-04-28T17:35:52.962Z,97654.59
2023-04-28T17:38:19.320Z,97657.04
2023-04-28T17:40:45.729Z,97657.01
2023-04-28T17:43:12.065Z,97658.33
2023-04-28T17:45:38.413Z,97655.33
2023-04-28T17:48:04.968Z,97658.81
2023-04-28T17:50:31.452Z,97661.02
2023-04-28T17:52:57.790Z,97663.05
2023-04-28T17:55:24.158Z,97662.91
2023-04-28T17:57:50.535Z,97660.83
2023-04-28T18:00:17.066Z,97664.89
2023-04-28T18:02:43.586Z,97665.64
2023-04-28T18:05:10.132Z,97667.20
2023-04-28T18:07:36.593Z,97669.06
2023-04-28T18:10:03.009Z,97667.96
2023-04-28T18:12:29.417Z,97671.75
2023-04-28T18:14:55.842Z,97672.95
2023-04-28T18:17:22.462Z,97670.45
2023-04-28T18:19:49.338Z,97670.85
2023-04-28T18:22:15.732Z,97675.91
2023-04-28T18:24:42.260Z,97674.63
2023-04-28T18:27:08.608Z,97677.52
2023-04-28T18:29:34.968Z,97679.65
2023-04-28T18:32:01.424Z,97676.59
2023-04-28T18:34:27.815Z,97681.02
2023-04-28T18:36:54.142Z,97680.73
2023-04-28T18:39:20.471Z,97682.80
2023-04-28T18:41:47.131Z,97682.98
2023-04-28T18:44:13.649Z,97683.98
2023-04-28T18:46:40.118Z,97689.13
2023-04-28T18:49:06.642Z,97688.33
2023-04-28T18:51:32.999Z,97689.98
2023-04-28T18:53:59.341Z,97690.68
2023-04-28T18:56:25.905Z,97689.43
2023-04-28T18:58:52.270Z,97693.16
2023-04-28T19:01:18.796Z,97697.77
2023-04-28T19:03:45.503Z,97705.07
2023-04-28T19:06:12.243Z,97705.54
2023-04-28T19:08:38.958Z,97707.90
2023-04-28T19:11:06.125Z,97711.40
2023-04-28T19:13:33.384Z,97716.74
2023-04-28T19:15:59.711Z,97719.95
2023-04-28T19:18:26.121Z,97719.87
2023-04-28T19:21:02.450Z,97717.38
2023-04-28T19:23:29.245Z,97718.55
2023-04-28T19:25:57.461Z,97717.77
2023-04-28T19:28:24.401Z,97717.91
2023-04-28T19:30:55.237Z,97718.25
2023-04-28T19:33:22.331Z,97718.59
2023-04-28T19:35:49.371Z,97718.20
2023-04-28T19:38:16.924Z,97720.55
2023-04-28T19:40:44.024Z,97723.44
2023-04-28T19:43:10.697Z,97723.35
2023-04-28T19:45:38.610Z,97721.66
2023-04-28T19:48:06.036Z,97721.83
2023-04-28T19:50:32.562Z,97715.18
2023-04-28T19:52:59.179Z,97715.98
2023-04-28T19:55:25.568Z,97715.54
2023-04-28T19:57:52.060Z,97715.23
2023-04-28T20:00:18.890Z,97712.17
2023-04-28T20:02:45.432Z,97710.58
2023-04-28T20:05:11.871Z,97707.28
2023-04-28T20:07:38.764Z,97703.59
2023-04-28T20:10:05.459Z,97699.55
2023-04-28T20:12:31.919Z,97698.30
2023-04-28T20:14:58.437Z,97700.64
2023-04-28T20:17:24.927Z,97698.92
2023-04-28T20:19:51.741Z,97697.08
2023-04-28T20:22:18.430Z,97699.35
2023-04-28T20:24:45.039Z,97693.55
2023-04-28T20:27:11.986Z,97688.30
2023-04-28T20:29:38.643Z,97690.11
2023-04-28T20:32:05.041Z,97687.14
2023-04-28T20:34:31.397Z,97686.98
2023-04-28T20:36:58.449Z,97683.03
2023-04-28T20:39:25.375Z,97688.44
2023-04-28T20:41:51.871Z,97685.39
2023-04-28T20:44:18.223Z,97685.60
2023-04-28T20:46:47.589Z,97683.53
2023-04-28T20:49:14.552Z,97685.21
2023-04-28T20:51:41.662Z,97682.81
2023-04-28T20:54:08.023Z,97682.15
2023-04-28T20:56:34.734Z,97677.38
2023-04-28T20:59:01.238Z,97674.21
2023-04-28T21:01:27.687Z,97670.06
2023-04-28T21:03:54.239Z,97671.30
2023-04-28T21:06:20.857Z,97666.39
2023-04-28T21:08:47.211Z,97667.25
2023-04-28T21:11:14.432Z,97668.29
2023-04-28T21:13:41.450Z,97661.67
2023-04-28T21:16:21.994Z,97660.40
2023-04-28T21:18:48.804Z,97656.67
2023-04-28T21:21:15.109Z,97654.66
2023-04-28T21:23:41.454Z,97653.52
2023-04-28T21:26:08.410Z,97654.80
2023-04-28T21:28:35.649Z,97656.83
2023-04-28T21:31:02.712Z,97653.58
2023-04-28T21:33:29.882Z,97650.16
2023-04-28T21:35:56.518Z,97651.81
2023-04-28T21:38:23.521Z,97648.63
2023-04-28T21:40:50.000Z,97648.63
2023-04-28T21:43:16.353Z,97651.27
2023-04-28T21:45:42.715Z,97648.07
2023-04-28T21:48:09.236Z,97652.52
2023-04-28T21:50:35.685Z,97654.84
2023-04-28T21:53:02.102Z,97652.98
2023-04-28T21:55:28.617Z,97647.16
2023-04-28T21:57:54.956Z,97650.12
2023-04-28T22:00:21.372Z,97651.17
2023-04-28T22:02:47.804Z,97650.41
2023-04-28T22:05:14.427Z,97646.96
2023-04-28T22:07:41.114Z,97646.43
2023-04-28T22:10:08.297Z,97644.11
2023-04-28T22:12:34.653Z,97647.17
2023-04-28T22:15:01.102Z,97646.88
2023-04-28T22:17:27.511Z,97644.83
2023-04-28T22:19:53.920Z,97643.09
2023-04-28T22:22:20.380Z,97641.98
2023-04-28T22:24:46.720Z,97641.91
2023-04-28T22:27:13.018Z,97639.39
2023-04-28T22:29:39.401Z,97633.65
2023-04-28T22:32:05.734Z,97633.56
2023-04-28T22:34:32.018Z,97629.11
2023-04-28T22:36:58.345Z,97626.80
2023-04-28T22:39:24.643Z,97625.16
2023-04-28T22:41:50.961Z,97625.21
2023-04-28T22:44:17.243Z,97625.77
2023-04-28T22:46:43.542Z,97625.80
2023-04-28T22:49:09.979Z,97623.91
2023-04-28T22:51:36.316Z,97627.11
2023-04-28T22:54:02.730Z,97622.68
2023-04-28T22:56:29.187Z,97620.59
2023-04-28T22:58:55.572Z,97620.35
2023-04-28T23:01:21.914Z,97621.63
2023-04-28T23:03:48.356Z,97619.41
2023-04-28T23:06:14.719Z,97617.55
2023-04-28T23:08:41.037Z,97620.61
2023-04-28T23:11:07.507Z,97620.67
2023-04-28T23:13:34.004Z,97622.05
2023-04-28T23:16:00.462Z,97621.29
2023-04-28T23:18:32.764Z,97617.90
2023-04-28T23:20:59.015Z,97614.64
2023-04-28T23:23:25.335Z,97610.43
2023-04-28T23:25:51.892Z,97608.36
2023-04-28T23:28:18.140Z,97609.30
2023-04-28T23:30:44.500Z,97606.85
2023-04-28T23:33:10.948Z,97608.13
2023-04-28T23:35:37.236Z,97609.13
2023-04-28T23:38:03.545Z,97606.03
2023-04-28T23:40:29.892Z,97604.92
2023-04-28T23:42:56.175Z,97602.23
2023-04-28T23:45:22.649Z,97596.59
2023-04-28T23:47:49.104Z,97597.85
2023-04-28T23:50:15.503Z,97596.27
2023-04-28T23:52:41.826Z,97593.35
2023-04-28T23:55:08.533Z,97588.41
2023-04-28T23:57:35.884Z,97586.19
